Thursday, February 22, 2018, 5:39 AM EST
Back to Local

KMLT, Millinocket Municipal Airport

Location: Millinocket, ME, United States Lat: 45.65
Local Time: 5:39 AM EST (10:39 GMT) Lon: -68.7
Time Zone: US/Eastern Elev: 406 ft

Show me the last for .
Show Coded

Time T Td Feel RH Dir Speed Gust Alt SLP Vis Weather Sky Remarks
2018-02-22 04:53 24 11 13 56 320° 12 - 30.59 30.62 10 CLR None
2018-02-22 03:53 26 12 16 54 330° 10 - 30.56 30.58 10 CLR None
2018-02-22 02:53 28 13 17 52 330° 13 - 30.53 30.56 10 CLR None
2018-02-22 01:53 30 17 20 58 320° 13 - 30.50 30.52 10 CLR None
2018-02-22 00:53 33 22 22 63 320° 10 17 30.45 30.48 10 BKN036 6-hr Min Temp (1am): 32.0°F
6-hr Max Temp (1am): 48.9°F
2018-02-21 23:53 34 21 23 58 300° 12 20 30.41 30.43 10 CLR Pressure rising rapidly
24-hr Min Temp (12am): 34.0°F
24-hr Max Temp (12am): 54.0°F
2018-02-21 22:53 36 23 25 58 300° 13 22 30.36 30.38 10 CLR Peak wind: 29 mph (26 kts) from 300° at 58 min
2018-02-21 21:53 37 24 25 59 290° 18 29 30.29 30.32 10 CLR Peak wind: 31 mph (27 kts) from 290° at 15 min
2018-02-21 20:53 40 27 29 59 300° 18 26 30.26 30.29 10 CLR Peak wind: 31 mph (27 kts) from 310° at 30 min
2018-02-21 19:53 45 31 35 57 300° 14 29 30.20 30.22 10 CLR Peak wind: 32 mph (28 kts) from 310° at 21 min
Pressure rising rapidly
2018-02-21 18:53 49 39 41 68 290° 16 25 30.12 30.15 10 FEW037 OVC100 6-hr Precip Total (7pm): 0.00"
6-hr Min Temp (7pm): 39.9°F
6-hr Max Temp (7pm): 54.0°F
2018-02-21 17:53 52 44 - 74 280° 13 30 30.06 30.08 10 OVC100 Peak wind: 31 mph (27 kts) from 310° at 28 min
Pressure rising rapidly
2018-02-21 16:53 52 50 - 92 290° 8 - 30.00 30.01 10 FEW031 OVC070 1-hr Precip Total: Trace
2018-02-21 15:53 44 42 - 92 - Calm - 29.97 30.00 4 -RA BR BKN033 OVC042 1-hr Precip Total: Trace
6-hr Precip Total (4pm): 0.00"
2018-02-21 14:53 47 44 43 89 120° 8 - 29.91 29.93 10 BKN065 OVC080 None
2018-02-21 13:53 48 44 46 86 Variable 5 - 29.91 29.93 10 CLR None
2018-02-21 12:53 47 43 44 86 150° 7 - 29.94 29.96 10 CLR Pressure falling rapidly
6-hr Min Temp (1pm): 36.0°F
6-hr Max Temp (1pm): 46.9°F
2018-02-21 11:53 44 42 40 92 140° 7 - 29.98 30.00 10 CLR None
2018-02-21 11:25 43 41 38 92 120° 8 - 29.99 - 10 SCT006 None
2018-02-21 10:53 42 41 40 95 Variable 3 - 30.01 30.03 10 OVC006 None
2018-02-21 10:36 42 40 40 91 160° 3 - 30.02 - 10 OVC005 None
2018-02-21 09:53 41 39 - 92 - Calm - 30.04 30.06 10 OVC003 None
2018-02-21 08:53 38 38 36 100 Variable 3 - 30.05 30.08 9 OVC004 None
2018-02-21 07:53 37 37 33 100 Variable 5 - 30.08 30.11 10 OVC004 None
2018-02-21 06:53 36 36 33 100 Variable 3 - 30.10 30.12 6 BR OVC003 6-hr Precip Total (7am): 0.01"
24-hr Precip Total (7am): 0.32"
6-hr Min Temp (7am): 35.1°F
6-hr Max Temp (7am): 36.0°F
2018-02-21 06:45 36 36 30 100 Variable 7 - 30.10 - 2 BR OVC002 None
2018-02-21 06:12 36 36 32 100 Variable 5 - 30.11 - 1 BR OVC002 None
2018-02-21 05:53 36 36 33 100 160° 3 - 30.12 30.15 0 FG VV003 None

Support USWX by starting your Amazon purchase here.